sensor_id;sensor_type;location;lat;lon;timestamp;P1;durP1;ratioP1;P2;durP2;ratioP2
66012;SDS011;52783;50.502;8.190;2023-11-18T00:01:14;65.85;;;17.73;;
66012;SDS011;52783;50.502;8.190;2023-11-18T00:03:40;77.45;;;17.85;;
66012;SDS011;52783;50.502;8.190;2023-11-18T00:06:05;72.15;;;17.63;;
66012;SDS011;52783;50.502;8.190;2023-11-18T00:08:32;76.80;;;17.48;;
66012;SDS011;52783;50.502;8.190;2023-11-18T00:10:58;97.82;;;18.02;;
66012;SDS011;52783;50.502;8.190;2023-11-18T00:13:24;120.88;;;16.80;;
66012;SDS011;52783;50.502;8.190;2023-11-18T00:15:51;76.03;;;16.45;;
66012;SDS011;52783;50.502;8.190;2023-11-18T00:18:17;84.15;;;18.13;;
66012;SDS011;52783;50.502;8.190;2023-11-18T00:20:44;78.45;;;18.42;;
66012;SDS011;52783;50.502;8.190;2023-11-18T00:23:09;148.35;;;17.20;;
66012;SDS011;52783;50.502;8.190;2023-11-18T00:25:35;121.85;;;11.73;;
66012;SDS011;52783;50.502;8.190;2023-11-18T00:28:01;113.15;;;12.73;;
66012;SDS011;52783;50.502;8.190;2023-11-18T00:30:27;201.48;;;13.93;;
66012;SDS011;52783;50.502;8.190;2023-11-18T00:32:53;113.47;;;13.23;;
66012;SDS011;52783;50.502;8.190;2023-11-18T00:35:19;194.25;;;18.58;;
66012;SDS011;52783;50.502;8.190;2023-11-18T00:37:44;194.65;;;15.05;;
66012;SDS011;52783;50.502;8.190;2023-11-18T00:40:10;82.88;;;13.35;;
66012;SDS011;52783;50.502;8.190;2023-11-18T00:42:36;107.18;;;13.00;;
66012;SDS011;52783;50.502;8.190;2023-11-18T00:45:03;215.40;;;18.20;;
66012;SDS011;52783;50.502;8.190;2023-11-18T00:47:29;149.52;;;18.67;;
66012;SDS011;52783;50.502;8.190;2023-11-18T00:49:55;154.95;;;15.88;;
66012;SDS011;52783;50.502;8.190;2023-11-18T00:52:22;139.75;;;14.75;;
66012;SDS011;52783;50.502;8.190;2023-11-18T00:54:48;109.65;;;12.68;;
66012;SDS011;52783;50.502;8.190;2023-11-18T00:57:13;89.68;;;13.15;;
66012;SDS011;52783;50.502;8.190;2023-11-18T00:59:42;156.15;;;15.05;;
66012;SDS011;52783;50.502;8.190;2023-11-18T01:02:08;154.70;;;15.02;;
66012;SDS011;52783;50.502;8.190;2023-11-18T01:04:34;123.75;;;12.55;;
66012;SDS011;52783;50.502;8.190;2023-11-18T01:06:59;121.13;;;14.23;;
66012;SDS011;52783;50.502;8.190;2023-11-18T01:09:25;96.20;;;12.48;;
66012;SDS011;52783;50.502;8.190;2023-11-18T01:11:50;62.97;;;10.88;;
66012;SDS011;52783;50.502;8.190;2023-11-18T01:14:16;64.63;;;12.85;;
66012;SDS011;52783;50.502;8.190;2023-11-18T01:16:42;81.43;;;13.43;;
66012;SDS011;52783;50.502;8.190;2023-11-18T01:19:09;75.43;;;14.00;;
66012;SDS011;52783;50.502;8.190;2023-11-18T01:21:34;143.38;;;15.20;;
66012;SDS011;52783;50.502;8.190;2023-11-18T01:24:01;122.18;;;14.68;;
66012;SDS011;52783;50.502;8.190;2023-11-18T01:26:27;259.75;;;14.07;;
66012;SDS011;52783;50.502;8.190;2023-11-18T01:28:53;74.20;;;12.75;;
66012;SDS011;52783;50.502;8.190;2023-11-18T01:31:18;118.70;;;12.73;;
66012;SDS011;52783;50.502;8.190;2023-11-18T01:33:44;100.53;;;13.35;;
66012;SDS011;52783;50.502;8.190;2023-11-18T01:36:10;166.52;;;14.93;;
66012;SDS011;52783;50.502;8.190;2023-11-18T01:38:37;157.65;;;13.65;;
66012;SDS011;52783;50.502;8.190;2023-11-18T01:41:03;161.48;;;13.60;;
66012;SDS011;52783;50.502;8.190;2023-11-18T01:43:32;155.02;;;12.70;;
66012;SDS011;52783;50.502;8.190;2023-11-18T01:46:02;141.20;;;11.55;;
66012;SDS011;52783;50.502;8.190;2023-11-18T01:48:30;85.20;;;10.00;;
66012;SDS011;52783;50.502;8.190;2023-11-18T01:50:58;115.53;;;11.93;;
66012;SDS011;52783;50.502;8.190;2023-11-18T01:53:26;97.03;;;11.02;;
66012;SDS011;52783;50.502;8.190;2023-11-18T01:55:53;86.90;;;10.60;;
66012;SDS011;52783;50.502;8.190;2023-11-18T01:58:19;97.07;;;10.93;;
66012;SDS011;52783;50.502;8.190;2023-11-18T02:00:48;157.45;;;11.73;;
66012;SDS011;52783;50.502;8.190;2023-11-18T02:03:16;142.52;;;12.60;;
66012;SDS011;52783;50.502;8.190;2023-11-18T02:05:41;111.63;;;10.70;;
66012;SDS011;52783;50.502;8.190;2023-11-18T02:08:07;60.88;;;10.68;;
66012;SDS011;52783;50.502;8.190;2023-11-18T02:10:33;46.38;;;10.88;;
66012;SDS011;52783;50.502;8.190;2023-11-18T02:13:06;88.13;;;10.63;;
66012;SDS011;52783;50.502;8.190;2023-11-18T02:15:38;39.88;;;9.95;;
66012;SDS011;52783;50.502;8.190;2023-11-18T02:18:06;76.20;;;9.18;;
66012;SDS011;52783;50.502;8.190;2023-11-18T02:20:35;305.90;;;12.25;;
66012;SDS011;52783;50.502;8.190;2023-11-18T02:23:01;198.60;;;9.98;;
66012;SDS011;52783;50.502;8.190;2023-11-18T02:25:27;269.25;;;11.30;;
66012;SDS011;52783;50.502;8.190;2023-11-18T02:27:57;164.73;;;10.82;;
66012;SDS011;52783;50.502;8.190;2023-11-18T02:30:23;296.33;;;13.77;;
66012;SDS011;52783;50.502;8.190;2023-11-18T02:33:07;190.45;;;10.77;;
66012;SDS011;52783;50.502;8.190;2023-11-18T02:35:49;264.52;;;11.65;;
66012;SDS011;52783;50.502;8.190;2023-11-18T02:38:18;233.75;;;11.55;;
66012;SDS011;52783;50.502;8.190;2023-11-18T02:40:58;144.20;;;10.65;;
66012;SDS011;52783;50.502;8.190;2023-11-18T02:43:27;147.50;;;10.23;;
66012;SDS011;52783;50.502;8.190;2023-11-18T02:45:53;122.55;;;10.50;;
66012;SDS011;52783;50.502;8.190;2023-11-18T02:48:21;82.95;;;9.48;;
66012;SDS011;52783;50.502;8.190;2023-11-18T02:50:48;181.93;;;9.88;;
66012;SDS011;52783;50.502;8.190;2023-11-18T02:53:13;114.22;;;9.98;;
66012;SDS011;52783;50.502;8.190;2023-11-18T02:55:39;152.63;;;10.43;;
66012;SDS011;52783;50.502;8.190;2023-11-18T02:58:05;158.85;;;9.40;;
66012;SDS011;52783;50.502;8.190;2023-11-18T03:00:32;147.85;;;10.02;;
66012;SDS011;52783;50.502;8.190;2023-11-18T03:03:03;135.98;;;10.23;;
66012;SDS011;52783;50.502;8.190;2023-11-18T03:05:29;106.45;;;10.15;;
66012;SDS011;52783;50.502;8.190;2023-11-18T03:07:55;257.05;;;10.82;;
66012;SDS011;52783;50.502;8.190;2023-11-18T03:10:23;333.45;;;10.50;;
66012;SDS011;52783;50.502;8.190;2023-11-18T03:12:49;190.82;;;9.73;;
66012;SDS011;52783;50.502;8.190;2023-11-18T03:15:15;239.02;;;11.25;;
66012;SDS011;52783;50.502;8.190;2023-11-18T03:17:48;192.95;;;9.38;;
66012;SDS011;52783;50.502;8.190;2023-11-18T03:20:18;239.80;;;10.13;;
66012;SDS011;52783;50.502;8.190;2023-11-18T03:22:45;279.83;;;9.50;;
66012;SDS011;52783;50.502;8.190;2023-11-18T03:25:14;235.05;;;10.32;;
66012;SDS011;52783;50.502;8.190;2023-11-18T03:27:40;155.52;;;8.70;;
66012;SDS011;52783;50.502;8.190;2023-11-18T03:30:06;118.10;;;9.40;;
66012;SDS011;52783;50.502;8.190;2023-11-18T03:32:33;63.53;;;8.52;;
66012;SDS011;52783;50.502;8.190;2023-11-18T03:35:00;141.65;;;9.10;;
66012;SDS011;52783;50.502;8.190;2023-11-18T03:37:27;164.15;;;8.63;;
66012;SDS011;52783;50.502;8.190;2023-11-18T03:39:52;149.95;;;8.95;;
66012;SDS011;52783;50.502;8.190;2023-11-18T03:42:18;164.00;;;8.23;;
66012;SDS011;52783;50.502;8.190;2023-11-18T03:44:44;162.02;;;8.25;;
66012;SDS011;52783;50.502;8.190;2023-11-18T03:47:15;147.38;;;8.93;;
66012;SDS011;52783;50.502;8.190;2023-11-18T03:49:41;79.75;;;8.82;;
66012;SDS011;52783;50.502;8.190;2023-11-18T03:52:07;116.13;;;8.00;;
66012;SDS011;52783;50.502;8.190;2023-11-18T03:54:32;163.82;;;8.43;;
66012;SDS011;52783;50.502;8.190;2023-11-18T03:56:58;66.53;;;7.63;;
66012;SDS011;52783;50.502;8.190;2023-11-18T03:59:24;116.28;;;9.20;;
66012;SDS011;52783;50.502;8.190;2023-11-18T04:01:50;80.20;;;7.13;;
66012;SDS011;52783;50.502;8.190;2023-11-18T04:04:16;73.88;;;7.85;;
66012;SDS011;52783;50.502;8.190;2023-11-18T04:06:42;79.55;;;7.85;;
66012;SDS011;52783;50.502;8.190;2023-11-18T04:09:08;118.05;;;7.40;;
66012;SDS011;52783;50.502;8.190;2023-11-18T04:11:35;142.57;;;7.57;;
66012;SDS011;52783;50.502;8.190;2023-11-18T04:14:01;173.82;;;8.15;;
66012;SDS011;52783;50.502;8.190;2023-11-18T04:16:28;110.45;;;8.18;;
66012;SDS011;52783;50.502;8.190;2023-11-18T04:18:54;70.80;;;7.60;;
66012;SDS011;52783;50.502;8.190;2023-11-18T04:21:20;101.07;;;9.70;;
66012;SDS011;52783;50.502;8.190;2023-11-18T04:23:46;139.85;;;8.30;;
66012;SDS011;52783;50.502;8.190;2023-11-18T04:26:12;69.47;;;8.23;;
66012;SDS011;52783;50.502;8.190;2023-11-18T04:28:38;98.75;;;7.85;;
66012;SDS011;52783;50.502;8.190;2023-11-18T04:31:04;81.60;;;6.85;;
66012;SDS011;52783;50.502;8.190;2023-11-18T04:33:30;86.78;;;6.93;;
66012;SDS011;52783;50.502;8.190;2023-11-18T04:35:56;75.45;;;7.07;;
66012;SDS011;52783;50.502;8.190;2023-11-18T04:38:22;87.00;;;7.18;;
66012;SDS011;52783;50.502;8.190;2023-11-18T04:40:48;115.78;;;7.70;;
66012;SDS011;52783;50.502;8.190;2023-11-18T04:43:14;159.02;;;8.43;;
66012;SDS011;52783;50.502;8.190;2023-11-18T04:45:40;96.32;;;8.27;;
66012;SDS011;52783;50.502;8.190;2023-11-18T04:48:08;61.25;;;8.02;;
66012;SDS011;52783;50.502;8.190;2023-11-18T04:50:34;72.32;;;8.73;;
66012;SDS011;52783;50.502;8.190;2023-11-18T04:53:00;89.50;;;8.52;;
66012;SDS011;52783;50.502;8.190;2023-11-18T04:55:25;52.08;;;6.97;;
66012;SDS011;52783;50.502;8.190;2023-11-18T04:57:51;59.03;;;7.22;;
66012;SDS011;52783;50.502;8.190;2023-11-18T05:00:17;55.75;;;7.40;;
66012;SDS011;52783;50.502;8.190;2023-11-18T05:02:44;36.53;;;7.35;;
66012;SDS011;52783;50.502;8.190;2023-11-18T05:05:12;50.10;;;7.97;;
66012;SDS011;52783;50.502;8.190;2023-11-18T05:07:39;40.20;;;7.47;;
66012;SDS011;52783;50.502;8.190;2023-11-18T05:10:05;50.55;;;7.68;;
66012;SDS011;52783;50.502;8.190;2023-11-18T05:12:33;140.18;;;7.32;;
66012;SDS011;52783;50.502;8.190;2023-11-18T05:14:59;102.15;;;6.93;;
66012;SDS011;52783;50.502;8.190;2023-11-18T05:17:25;140.05;;;7.75;;
66012;SDS011;52783;50.502;8.190;2023-11-18T05:19:51;136.75;;;6.53;;
66012;SDS011;52783;50.502;8.190;2023-11-18T05:22:20;86.07;;;5.38;;
66012;SDS011;52783;50.502;8.190;2023-11-18T05:24:46;159.90;;;6.95;;
66012;SDS011;52783;50.502;8.190;2023-11-18T05:27:13;84.50;;;5.72;;
66012;SDS011;52783;50.502;8.190;2023-11-18T05:29:39;59.80;;;5.85;;
66012;SDS011;52783;50.502;8.190;2023-11-18T05:32:06;94.25;;;7.20;;
66012;SDS011;52783;50.502;8.190;2023-11-18T05:34:32;84.57;;;6.78;;
66012;SDS011;52783;50.502;8.190;2023-11-18T05:37:00;58.22;;;6.43;;
66012;SDS011;52783;50.502;8.190;2023-11-18T05:39:26;58.80;;;5.95;;
66012;SDS011;52783;50.502;8.190;2023-11-18T05:41:53;71.70;;;5.53;;
66012;SDS011;52783;50.502;8.190;2023-11-18T05:44:21;109.88;;;6.90;;
66012;SDS011;52783;50.502;8.190;2023-11-18T05:46:55;70.97;;;5.82;;
66012;SDS011;52783;50.502;8.190;2023-11-18T05:49:22;83.30;;;6.25;;
66012;SDS011;52783;50.502;8.190;2023-11-18T05:51:47;97.65;;;6.88;;
66012;SDS011;52783;50.502;8.190;2023-11-18T05:54:13;101.05;;;6.80;;
66012;SDS011;52783;50.502;8.190;2023-11-18T05:56:38;134.38;;;7.50;;
66012;SDS011;52783;50.502;8.190;2023-11-18T05:59:04;138.23;;;6.85;;
66012;SDS011;52783;50.502;8.190;2023-11-18T06:01:29;81.88;;;6.97;;
66012;SDS011;52783;50.502;8.190;2023-11-18T06:03:55;116.65;;;7.30;;
66012;SDS011;52783;50.502;8.190;2023-11-18T06:06:22;56.50;;;6.30;;
66012;SDS011;52783;50.502;8.190;2023-11-18T06:08:48;46.22;;;6.65;;
66012;SDS011;52783;50.502;8.190;2023-11-18T06:11:14;51.88;;;6.72;;
66012;SDS011;52783;50.502;8.190;2023-11-18T06:13:44;34.35;;;6.38;;
66012;SDS011;52783;50.502;8.190;2023-11-18T06:16:23;46.00;;;7.07;;
66012;SDS011;52783;50.502;8.190;2023-11-18T06:18:50;32.10;;;7.40;;
66012;SDS011;52783;50.502;8.190;2023-11-18T06:21:17;49.08;;;7.90;;
66012;SDS011;52783;50.502;8.190;2023-11-18T06:23:45;48.28;;;7.57;;
66012;SDS011;52783;50.502;8.190;2023-11-18T06:26:12;41.10;;;7.30;;
66012;SDS011;52783;50.502;8.190;2023-11-18T06:28:42;90.53;;;8.18;;
66012;SDS011;52783;50.502;8.190;2023-11-18T06:31:09;81.45;;;7.05;;
66012;SDS011;52783;50.502;8.190;2023-11-18T06:33:39;93.20;;;6.60;;
66012;SDS011;52783;50.502;8.190;2023-11-18T06:36:08;113.32;;;8.52;;
66012;SDS011;52783;50.502;8.190;2023-11-18T06:38:36;144.73;;;7.80;;
66012;SDS011;52783;50.502;8.190;2023-11-18T06:41:02;162.98;;;8.05;;
66012;SDS011;52783;50.502;8.190;2023-11-18T06:43:30;126.10;;;8.73;;
66012;SDS011;52783;50.502;8.190;2023-11-18T06:46:10;45.17;;;7.63;;
66012;SDS011;52783;50.502;8.190;2023-11-18T06:48:39;118.35;;;7.85;;
66012;SDS011;52783;50.502;8.190;2023-11-18T06:51:05;58.15;;;7.25;;
66012;SDS011;52783;50.502;8.190;2023-11-18T06:53:33;154.35;;;8.70;;
66012;SDS011;52783;50.502;8.190;2023-11-18T06:55:59;77.97;;;7.28;;
66012;SDS011;52783;50.502;8.190;2023-11-18T06:58:25;52.10;;;7.97;;
66012;SDS011;52783;50.502;8.190;2023-11-18T07:00:51;65.93;;;8.75;;
66012;SDS011;52783;50.502;8.190;2023-11-18T07:03:17;53.92;;;8.57;;
66012;SDS011;52783;50.502;8.190;2023-11-18T07:05:42;99.22;;;10.48;;
66012;SDS011;52783;50.502;8.190;2023-11-18T07:08:09;79.75;;;8.30;;
66012;SDS011;52783;50.502;8.190;2023-11-18T07:10:34;107.90;;;10.82;;
66012;SDS011;52783;50.502;8.190;2023-11-18T07:13:03;51.42;;;9.50;;
66012;SDS011;52783;50.502;8.190;2023-11-18T07:15:28;121.50;;;10.77;;
66012;SDS011;52783;50.502;8.190;2023-11-18T07:17:54;90.72;;;9.07;;
66012;SDS011;52783;50.502;8.190;2023-11-18T07:20:19;63.92;;;10.63;;
66012;SDS011;52783;50.502;8.190;2023-11-18T07:22:45;60.17;;;10.02;;
66012;SDS011;52783;50.502;8.190;2023-11-18T07:25:10;117.05;;;8.90;;
66012;SDS011;52783;50.502;8.190;2023-11-18T07:27:36;107.65;;;8.15;;
66012;SDS011;52783;50.502;8.190;2023-11-18T07:30:02;110.68;;;7.93;;
66012;SDS011;52783;50.502;8.190;2023-11-18T07:32:31;108.13;;;8.10;;
66012;SDS011;52783;50.502;8.190;2023-11-18T07:34:58;107.55;;;6.25;;
66012;SDS011;52783;50.502;8.190;2023-11-18T07:37:24;215.77;;;8.52;;
66012;SDS011;52783;50.502;8.190;2023-11-18T07:39:51;170.60;;;7.75;;
66012;SDS011;52783;50.502;8.190;2023-11-18T07:42:17;156.73;;;8.27;;
66012;SDS011;52783;50.502;8.190;2023-11-18T07:44:46;123.38;;;6.75;;
66012;SDS011;52783;50.502;8.190;2023-11-18T07:47:13;169.40;;;7.85;;
66012;SDS011;52783;50.502;8.190;2023-11-18T07:49:41;190.43;;;8.18;;
66012;SDS011;52783;50.502;8.190;2023-11-18T07:52:06;138.38;;;9.25;;
66012;SDS011;52783;50.502;8.190;2023-11-18T07:54:32;179.70;;;11.50;;
66012;SDS011;52783;50.502;8.190;2023-11-18T07:56:58;137.30;;;9.50;;
66012;SDS011;52783;50.502;8.190;2023-11-18T07:59:23;93.38;;;5.38;;
66012;SDS011;52783;50.502;8.190;2023-11-18T08:01:50;187.65;;;8.20;;
66012;SDS011;52783;50.502;8.190;2023-11-18T08:04:15;142.35;;;8.25;;
66012;SDS011;52783;50.502;8.190;2023-11-18T08:06:43;100.47;;;7.97;;
66012;SDS011;52783;50.502;8.190;2023-11-18T08:09:08;101.30;;;8.48;;
66012;SDS011;52783;50.502;8.190;2023-11-18T08:11:37;124.65;;;10.35;;
66012;SDS011;52783;50.502;8.190;2023-11-18T08:14:06;44.40;;;8.48;;
66012;SDS011;52783;50.502;8.190;2023-11-18T08:16:32;104.43;;;6.97;;
66012;SDS011;52783;50.502;8.190;2023-11-18T08:18:58;44.05;;;9.48;;
66012;SDS011;52783;50.502;8.190;2023-11-18T08:21:24;125.70;;;8.80;;
66012;SDS011;52783;50.502;8.190;2023-11-18T08:23:49;49.33;;;6.03;;
66012;SDS011;52783;50.502;8.190;2023-11-18T08:26:15;30.13;;;8.40;;
66012;SDS011;52783;50.502;8.190;2023-11-18T08:28:40;33.05;;;9.30;;
66012;SDS011;52783;50.502;8.190;2023-11-18T08:31:06;125.57;;;9.25;;
66012;SDS011;52783;50.502;8.190;2023-11-18T08:33:32;55.90;;;8.73;;
66012;SDS011;52783;50.502;8.190;2023-11-18T08:35:59;66.53;;;8.45;;
66012;SDS011;52783;50.502;8.190;2023-11-18T08:38:26;50.08;;;8.50;;
66012;SDS011;52783;50.502;8.190;2023-11-18T08:40:52;46.00;;;8.38;;
66012;SDS011;52783;50.502;8.190;2023-11-18T08:43:20;45.97;;;9.20;;
66012;SDS011;52783;50.502;8.190;2023-11-18T08:45:46;30.63;;;9.35;;
66012;SDS011;52783;50.502;8.190;2023-11-18T08:48:12;30.60;;;9.10;;
66012;SDS011;52783;50.502;8.190;2023-11-18T08:50:38;33.80;;;9.95;;
66012;SDS011;52783;50.502;8.190;2023-11-18T08:53:08;26.95;;;9.23;;
66012;SDS011;52783;50.502;8.190;2023-11-18T08:55:34;34.50;;;10.18;;
66012;SDS011;52783;50.502;8.190;2023-11-18T09:00:41;27.77;;;10.40;;
66012;SDS011;52783;50.502;8.190;2023-11-18T09:03:20;32.53;;;11.20;;
66012;SDS011;52783;50.502;8.190;2023-11-18T09:05:53;35.28;;;11.00;;
66012;SDS011;52783;50.502;8.190;2023-11-18T09:08:27;30.52;;;9.93;;
66012;SDS011;52783;50.502;8.190;2023-11-18T09:11:08;28.63;;;9.43;;
66012;SDS011;52783;50.502;8.190;2023-11-18T09:13:42;30.45;;;10.70;;
66012;SDS011;52783;50.502;8.190;2023-11-18T09:16:14;37.30;;;14.13;;
66012;SDS011;52783;50.502;8.190;2023-11-18T09:18:42;31.45;;;11.15;;
66012;SDS011;52783;50.502;8.190;2023-11-18T09:21:10;23.15;;;10.02;;
66012;SDS011;52783;50.502;8.190;2023-11-18T09:23:40;37.42;;;10.43;;
66012;SDS011;52783;50.502;8.190;2023-11-18T09:26:07;24.00;;;9.75;;
66012;SDS011;52783;50.502;8.190;2023-11-18T09:28:33;29.05;;;9.48;;
66012;SDS011;52783;50.502;8.190;2023-11-18T09:31:00;21.25;;;8.65;;
66012;SDS011;52783;50.502;8.190;2023-11-18T09:33:28;23.38;;;9.05;;
66012;SDS011;52783;50.502;8.190;2023-11-18T09:35:58;23.15;;;8.57;;
66012;SDS011;52783;50.502;8.190;2023-11-18T09:40:59;30.88;;;9.00;;
66012;SDS011;52783;50.502;8.190;2023-11-18T09:43:28;38.85;;;8.07;;
66012;SDS011;52783;50.502;8.190;2023-11-18T09:46:03;24.65;;;8.65;;
66012;SDS011;52783;50.502;8.190;2023-11-18T09:48:37;21.42;;;9.20;;
66012;SDS011;52783;50.502;8.190;2023-11-18T09:51:08;17.27;;;7.97;;
66012;SDS011;52783;50.502;8.190;2023-11-18T09:53:37;19.83;;;8.60;;
66012;SDS011;52783;50.502;8.190;2023-11-18T09:56:10;19.42;;;8.48;;
66012;SDS011;52783;50.502;8.190;2023-11-18T09:58:53;17.45;;;8.30;;
66012;SDS011;52783;50.502;8.190;2023-11-18T10:01:40;21.48;;;8.65;;
66012;SDS011;52783;50.502;8.190;2023-11-18T10:04:09;22.70;;;10.18;;
66012;SDS011;52783;50.502;8.190;2023-11-18T10:06:36;20.27;;;8.85;;
66012;SDS011;52783;50.502;8.190;2023-11-18T10:09:04;22.35;;;9.57;;
66012;SDS011;52783;50.502;8.190;2023-11-18T10:11:42;22.30;;;8.25;;
66012;SDS011;52783;50.502;8.190;2023-11-18T10:14:08;17.27;;;8.90;;
66012;SDS011;52783;50.502;8.190;2023-11-18T10:16:35;25.25;;;8.63;;
66012;SDS011;52783;50.502;8.190;2023-11-18T10:19:03;23.55;;;9.32;;
66012;SDS011;52783;50.502;8.190;2023-11-18T10:21:36;16.85;;;8.63;;
66012;SDS011;52783;50.502;8.190;2023-11-18T10:24:04;20.58;;;8.13;;
66012;SDS011;52783;50.502;8.190;2023-11-18T10:26:40;14.90;;;8.48;;
66012;SDS011;52783;50.502;8.190;2023-11-18T10:29:09;17.23;;;9.05;;
66012;SDS011;52783;50.502;8.190;2023-11-18T10:31:35;25.00;;;9.55;;
66012;SDS011;52783;50.502;8.190;2023-11-18T10:34:02;16.50;;;8.48;;
66012;SDS011;52783;50.502;8.190;2023-11-18T10:36:29;18.35;;;8.02;;
66012;SDS011;52783;50.502;8.190;2023-11-18T10:38:58;19.00;;;9.73;;
66012;SDS011;52783;50.502;8.190;2023-11-18T10:41:26;19.95;;;8.90;;
66012;SDS011;52783;50.502;8.190;2023-11-18T10:44:07;16.50;;;8.77;;
66012;SDS011;52783;50.502;8.190;2023-11-18T10:46:38;30.55;;;10.75;;
66012;SDS011;52783;50.502;8.190;2023-11-18T10:49:06;21.60;;;10.68;;
66012;SDS011;52783;50.502;8.190;2023-11-18T10:51:35;18.42;;;10.30;;
66012;SDS011;52783;50.502;8.190;2023-11-18T10:54:04;22.20;;;10.13;;
66012;SDS011;52783;50.502;8.190;2023-11-18T10:56:30;22.75;;;10.52;;
66012;SDS011;52783;50.502;8.190;2023-11-18T10:59:04;20.42;;;8.75;;
66012;SDS011;52783;50.502;8.190;2023-11-18T11:01:34;19.40;;;9.18;;
66012;SDS011;52783;50.502;8.190;2023-11-18T11:04:07;27.10;;;10.25;;
66012;SDS011;52783;50.502;8.190;2023-11-18T11:06:35;22.15;;;9.05;;
66012;SDS011;52783;50.502;8.190;2023-11-18T11:09:06;21.88;;;9.27;;
66012;SDS011;52783;50.502;8.190;2023-11-18T11:11:48;20.88;;;10.20;;
66012;SDS011;52783;50.502;8.190;2023-11-18T11:14:15;22.83;;;10.32;;
66012;SDS011;52783;50.502;8.190;2023-11-18T11:16:45;26.30;;;11.13;;
66012;SDS011;52783;50.502;8.190;2023-11-18T11:22:09;32.53;;;9.98;;
66012;SDS011;52783;50.502;8.190;2023-11-18T11:27:13;20.20;;;9.77;;
66012;SDS011;52783;50.502;8.190;2023-11-18T11:30:04;19.67;;;9.80;;
66012;SDS011;52783;50.502;8.190;2023-11-18T11:32:45;19.50;;;10.05;;
66012;SDS011;52783;50.502;8.190;2023-11-18T11:35:19;21.40;;;10.40;;
66012;SDS011;52783;50.502;8.190;2023-11-18T11:37:48;24.20;;;11.05;;
66012;SDS011;52783;50.502;8.190;2023-11-18T11:40:15;22.33;;;10.52;;
66012;SDS011;52783;50.502;8.190;2023-11-18T11:42:47;27.05;;;11.98;;
66012;SDS011;52783;50.502;8.190;2023-11-18T11:45:19;24.95;;;10.95;;
66012;SDS011;52783;50.502;8.190;2023-11-18T11:47:53;22.70;;;10.13;;
66012;SDS011;52783;50.502;8.190;2023-11-18T11:50:37;19.65;;;8.77;;
66012;SDS011;52783;50.502;8.190;2023-11-18T11:53:16;17.90;;;9.88;;
66012;SDS011;52783;50.502;8.190;2023-11-18T11:55:49;20.67;;;9.27;;
66012;SDS011;52783;50.502;8.190;2023-11-18T11:58:26;20.98;;;10.70;;
66012;SDS011;52783;50.502;8.190;2023-11-18T12:00:53;23.27;;;9.93;;
66012;SDS011;52783;50.502;8.190;2023-11-18T12:03:21;21.92;;;11.02;;
66012;SDS011;52783;50.502;8.190;2023-11-18T12:05:47;22.10;;;10.70;;
66012;SDS011;52783;50.502;8.190;2023-11-18T12:08:14;22.63;;;11.18;;
66012;SDS011;52783;50.502;8.190;2023-11-18T12:10:50;27.75;;;11.40;;
66012;SDS011;52783;50.502;8.190;2023-11-18T12:13:17;19.25;;;10.18;;
66012;SDS011;52783;50.502;8.190;2023-11-18T12:15:51;19.30;;;9.50;;
66012;SDS011;52783;50.502;8.190;2023-11-18T12:18:28;24.38;;;10.70;;
66012;SDS011;52783;50.502;8.190;2023-11-18T12:20:57;20.70;;;9.75;;
66012;SDS011;52783;50.502;8.190;2023-11-18T12:23:27;21.77;;;10.65;;
66012;SDS011;52783;50.502;8.190;2023-11-18T12:25:55;19.40;;;10.10;;
66012;SDS011;52783;50.502;8.190;2023-11-18T12:30:56;20.45;;;9.68;;
66012;SDS011;52783;50.502;8.190;2023-11-18T12:33:25;20.75;;;10.52;;
66012;SDS011;52783;50.502;8.190;2023-11-18T12:42:02;26.25;;;10.73;;
66012;SDS011;52783;50.502;8.190;2023-11-18T12:44:33;22.80;;;10.98;;
66012;SDS011;52783;50.502;8.190;2023-11-18T12:47:04;27.80;;;11.07;;
66012;SDS011;52783;50.502;8.190;2023-11-18T12:49:40;22.58;;;11.75;;
66012;SDS011;52783;50.502;8.190;2023-11-18T12:52:07;21.17;;;10.85;;
66012;SDS011;52783;50.502;8.190;2023-11-18T12:54:39;19.88;;;10.82;;
66012;SDS011;52783;50.502;8.190;2023-11-18T12:57:09;22.20;;;11.57;;
66012;SDS011;52783;50.502;8.190;2023-11-18T12:59:38;21.27;;;11.05;;
66012;SDS011;52783;50.502;8.190;2023-11-18T13:02:11;23.67;;;11.48;;
66012;SDS011;52783;50.502;8.190;2023-11-18T13:04:43;26.02;;;13.00;;
66012;SDS011;52783;50.502;8.190;2023-11-18T13:07:12;30.10;;;14.18;;
66012;SDS011;52783;50.502;8.190;2023-11-18T13:09:42;30.30;;;12.27;;
66012;SDS011;52783;50.502;8.190;2023-11-18T13:12:10;27.88;;;13.63;;
66012;SDS011;52783;50.502;8.190;2023-11-18T13:14:39;31.17;;;12.52;;
66012;SDS011;52783;50.502;8.190;2023-11-18T13:17:10;32.35;;;13.40;;
66012;SDS011;52783;50.502;8.190;2023-11-18T13:19:44;33.83;;;13.57;;
66012;SDS011;52783;50.502;8.190;2023-11-18T13:22:11;28.20;;;12.80;;
66012;SDS011;52783;50.502;8.190;2023-11-18T13:24:39;31.95;;;13.80;;
66012;SDS011;52783;50.502;8.190;2023-11-18T13:27:15;33.38;;;14.35;;
66012;SDS011;52783;50.502;8.190;2023-11-18T13:29:45;27.77;;;13.50;;
66012;SDS011;52783;50.502;8.190;2023-11-18T13:32:14;28.80;;;13.15;;
66012;SDS011;52783;50.502;8.190;2023-11-18T13:34:40;28.42;;;13.88;;
66012;SDS011;52783;50.502;8.190;2023-11-18T13:37:07;28.42;;;11.77;;
66012;SDS011;52783;50.502;8.190;2023-11-18T13:39:33;30.90;;;13.40;;
66012;SDS011;52783;50.502;8.190;2023-11-18T13:42:18;31.42;;;13.70;;
66012;SDS011;52783;50.502;8.190;2023-11-18T13:44:45;30.38;;;13.10;;
66012;SDS011;52783;50.502;8.190;2023-11-18T13:47:12;24.52;;;12.68;;
66012;SDS011;52783;50.502;8.190;2023-11-18T13:49:38;31.45;;;13.38;;
66012;SDS011;52783;50.502;8.190;2023-11-18T13:52:09;31.93;;;13.73;;
66012;SDS011;52783;50.502;8.190;2023-11-18T13:54:36;29.23;;;12.73;;
66012;SDS011;52783;50.502;8.190;2023-11-18T13:57:03;23.95;;;11.98;;
66012;SDS011;52783;50.502;8.190;2023-11-18T13:59:29;24.88;;;11.52;;
66012;SDS011;52783;50.502;8.190;2023-11-18T14:01:55;24.65;;;11.50;;
66012;SDS011;52783;50.502;8.190;2023-11-18T14:04:23;30.00;;;13.63;;
66012;SDS011;52783;50.502;8.190;2023-11-18T14:06:52;27.63;;;11.68;;
66012;SDS011;52783;50.502;8.190;2023-11-18T14:09:22;22.85;;;11.63;;
66012;SDS011;52783;50.502;8.190;2023-11-18T14:11:50;30.02;;;12.50;;
66012;SDS011;52783;50.502;8.190;2023-11-18T14:14:24;29.00;;;12.05;;
66012;SDS011;52783;50.502;8.190;2023-11-18T14:16:50;28.65;;;13.27;;
66012;SDS011;52783;50.502;8.190;2023-11-18T14:19:18;26.45;;;12.38;;
66012;SDS011;52783;50.502;8.190;2023-11-18T14:21:44;23.83;;;11.98;;
66012;SDS011;52783;50.502;8.190;2023-11-18T14:24:10;28.95;;;12.30;;
66012;SDS011;52783;50.502;8.190;2023-11-18T14:26:37;22.85;;;11.52;;
66012;SDS011;52783;50.502;8.190;2023-11-18T14:29:04;31.95;;;11.25;;
66012;SDS011;52783;50.502;8.190;2023-11-18T14:31:31;20.23;;;10.77;;
66012;SDS011;52783;50.502;8.190;2023-11-18T14:33:57;24.60;;;10.82;;
66012;SDS011;52783;50.502;8.190;2023-11-18T14:36:24;21.67;;;11.13;;
66012;SDS011;52783;50.502;8.190;2023-11-18T14:38:53;24.90;;;10.48;;
66012;SDS011;52783;50.502;8.190;2023-11-18T14:41:19;23.13;;;9.68;;
66012;SDS011;52783;50.502;8.190;2023-11-18T14:43:49;22.90;;;9.90;;
66012;SDS011;52783;50.502;8.190;2023-11-18T14:46:15;20.63;;;10.63;;
66012;SDS011;52783;50.502;8.190;2023-11-18T14:48:40;15.73;;;8.88;;